PWSweather.com
Personal Weather Stations
Station Observations
PICKERING
North Yorkshire, PickeringGB

North YorkshirePickeringGB

Lat: 54.2494, Lon: -0.7725

Elevation: 192

Station Type: Oregon Scientific WMR100

http://www.yorkshirewalker.co.uk/weather/

Latest ConditionsUpdated 5:40:00 PM GMT Friday, Nov 17, 2017
Currently Today's Max Today's Min Today's Average
Temperature 39.6°F4.2°C 42.8°F6.0°C 32.9°F0.5°C 37.4°F3.0°C
Dew Point 28.4°F-2.0°C 32.0°F0.0°C 21.2°F-6.0°C 25.6°F-3.6°C
Winds 1.5 mph SW2.4 kmh SW 4.3 mph WSW6.9 kmh WSW - 1.0 mph 1.6 kmh
Wind Gusts 2.5 mph4.0 kmh 8.1 mph13.0 kmh - -
Humidity 64% 66% 55% 61%
Pressure 30.27 in1025.1 mb 30.36 in1028.1 mb 30.27 in1025.1 mb -
Hour Temp Dew Point Humidity Winds Wind Gusts Pressure Precip Precip Rate Daily Precip Total
05:40 PM 39.6°F4.2°C 28.4°F-2.0°C 64% 1.5 mph SW2.4 kmh SW 2.5 mph4.0 kmh 30.27 in1025.1 mb 0.00 in0.0 mm 0.00 in0.0 mm 0.00 in0.0 mm
05:35 PM 39.7°F4.3°C 30.2°F-1.0°C 65% 2.1 mph WSW3.4 kmh WSW 3.8 mph6.1 kmh 30.27 in1025.1 mb 0.00 in0.0 mm 0.00 in0.0 mm 0.00 in0.0 mm
05:30 PM 39.9°F4.4°C 30.2°F-1.0°C 65% 1.9 mph WSW3.1 kmh WSW 3.8 mph6.1 kmh 30.27 in1025.1 mb 0.00 in0.0 mm 0.00 in0.0 mm 0.00 in0.0 mm
05:25 PM 39.7°F4.3°C 30.2°F-1.0°C 65% 1.9 mph WSW3.1 kmh WSW 3.4 mph5.5 kmh 30.27 in1025.1 mb 0.00 in0.0 mm 0.00 in0.0 mm 0.00 in0.0 mm
05:20 PM 39.9°F4.4°C 30.2°F-1.0°C 65% 2.4 mph WSW3.9 kmh WSW 3.4 mph5.5 kmh 30.27 in1025.1 mb 0.00 in0.0 mm 0.00 in0.0 mm 0.00 in0.0 mm
05:15 PM 39.9°F4.4°C 30.2°F-1.0°C 66% 2.3 mph WSW3.7 kmh WSW 2.9 mph4.7 kmh 30.27 in1025.1 mb 0.00 in0.0 mm 0.00 in0.0 mm 0.00 in0.0 mm
05:10 PM 39.9°F4.4°C 30.2°F-1.0°C 66% 1.6 mph WSW2.6 kmh WSW 2.9 mph4.7 kmh 30.27 in1025.1 mb 0.00 in0.0 mm 0.00 in0.0 mm 0.00 in0.0 mm
05:05 PM 39.6°F4.2°C 30.2°F-1.0°C 66% 0.8 mph WSW1.3 kmh WSW 1.6 mph2.6 kmh 30.27 in1025.1 mb 0.00 in0.0 mm 0.00 in0.0 mm 0.00 in0.0 mm
05:00 PM 39.7°F4.3°C 30.2°F-1.0°C 66% 1.2 mph SW1.9 kmh SW 2.9 mph4.7 kmh 30.27 in1025.1 mb 0.00 in0.0 mm 0.00 in0.0 mm 0.00 in0.0 mm
04:55 PM 39.6°F4.2°C 30.2°F-1.0°C 66% 1.6 mph SW2.6 kmh SW 2.9 mph4.7 kmh 30.27 in1025.1 mb 0.00 in0.0 mm 0.00 in0.0 mm 0.00 in0.0 mm
04:50 PM 39.6°F4.2°C 30.2°F-1.0°C 66% 2.1 mph SW3.4 kmh SW 6.5 mph10.5 kmh 30.27 in1025.1 mb 0.00 in0.0 mm 0.00 in0.0 mm 0.00 in0.0 mm
04:45 PM 39.6°F4.2°C 30.2°F-1.0°C 66% 2.7 mph SSW4.3 kmh SSW 6.5 mph10.5 kmh 30.27 in1025.1 mb 0.00 in0.0 mm 0.00 in0.0 mm 0.00 in0.0 mm
04:40 PM 39.7°F4.3°C 30.2°F-1.0°C 66% 1.6 mph SSW2.6 kmh SSW 3.8 mph6.1 kmh 30.27 in1025.1 mb 0.00 in0.0 mm 0.00 in0.0 mm 0.00 in0.0 mm
04:35 PM 39.7°F4.3°C 30.2°F-1.0°C 66% 0.9 mph ESE1.4 kmh ESE 2.2 mph3.5 kmh 30.27 in1025.1 mb 0.00 in0.0 mm 0.00 in0.0 mm 0.00 in0.0 mm
04:30 PM 39.9°F4.4°C 30.2°F-1.0°C 65% 1.6 mph E2.6 kmh E 2.5 mph4.0 kmh 30.27 in1025.1 mb 0.00 in0.0 mm 0.00 in0.0 mm 0.00 in0.0 mm
04:25 PM 39.9°F4.4°C 30.2°F-1.0°C 65% 2.3 mph E3.7 kmh E 3.1 mph5.0 kmh 30.27 in1025.1 mb 0.00 in0.0 mm 0.00 in0.0 mm 0.00 in0.0 mm
04:20 PM 40.1°F4.5°C 30.2°F-1.0°C 65% 1.7 mph E2.7 kmh E 3.1 mph5.0 kmh 30.27 in1025.1 mb 0.00 in0.0 mm 0.00 in0.0 mm 0.00 in0.0 mm
04:15 PM 40.5°F4.7°C 30.2°F-1.0°C 64% 0.5 mph ESE0.8 kmh ESE 2.0 mph3.2 kmh 30.27 in1025.1 mb 0.00 in0.0 mm 0.00 in0.0 mm 0.00 in0.0 mm
04:10 PM 40.6°F4.8°C 30.2°F-1.0°C 64% 0.3 mph SE0.5 kmh SE 1.1 mph1.8 kmh 30.27 in1025.1 mb 0.00 in0.0 mm 0.00 in0.0 mm 0.00 in0.0 mm
04:05 PM 40.8°F4.9°C 30.2°F-1.0°C 64% 1.2 mph ESE1.9 kmh ESE 3.4 mph5.5 kmh 30.27 in1025.1 mb 0.00 in0.0 mm 0.00 in0.0 mm 0.00 in0.0 mm
04:00 PM 41.0°F5.0°C 30.2°F-1.0°C 63% 1.9 mph ESE3.1 kmh ESE 3.4 mph5.5 kmh 30.27 in1025.1 mb 0.00 in0.0 mm 0.00 in0.0 mm 0.00 in0.0 mm
03:55 PM 41.2°F5.1°C 30.2°F-1.0°C 63% 1.9 mph E3.1 kmh E 3.4 mph5.5 kmh 30.27 in1025.1 mb 0.00 in0.0 mm 0.00 in0.0 mm 0.00 in0.0 mm
03:50 PM 41.0°F5.0°C 30.2°F-1.0°C 62% 1.1 mph E1.8 kmh E 2.5 mph4.0 kmh 30.27 in1025.1 mb 0.00 in0.0 mm 0.00 in0.0 mm 0.00 in0.0 mm
03:45 PM 41.2°F5.1°C 30.2°F-1.0°C 62% 1.1 mph SW1.8 kmh SW 2.5 mph4.0 kmh 30.27 in1025.1 mb 0.00 in0.0 mm 0.00 in0.0 mm 0.00 in0.0 mm
03:40 PM 41.7°F5.4°C 30.2°F-1.0°C 62% 1.3 mph SW2.1 kmh SW 2.0 mph3.2 kmh 30.27 in1025.1 mb 0.00 in0.0 mm 0.00 in0.0 mm 0.00 in0.0 mm
03:35 PM 41.9°F5.5°C 30.2°F-1.0°C 61% 1.1 mph SW1.8 kmh SW 2.0 mph3.2 kmh 30.27 in1025.1 mb 0.00 in0.0 mm 0.00 in0.0 mm 0.00 in0.0 mm
03:30 PM 42.3°F5.7°C 30.2°F-1.0°C 61% 1.3 mph SW2.1 kmh SW 2.2 mph3.5 kmh 30.27 in1025.1 mb 0.00 in0.0 mm 0.00 in0.0 mm 0.00 in0.0 mm
03:25 PM 42.3°F5.7°C 30.2°F-1.0°C 61% 1.4 mph SW2.3 kmh SW 2.2 mph3.5 kmh 30.27 in1025.1 mb 0.00 in0.0 mm 0.00 in0.0 mm 0.00 in0.0 mm
03:20 PM 42.4°F5.8°C 30.2°F-1.0°C 61% 2.1 mph WSW3.4 kmh WSW 3.8 mph6.1 kmh 30.30 in1026.1 mb 0.00 in0.0 mm 0.00 in0.0 mm 0.00 in0.0 mm
03:15 PM 42.6°F5.9°C 30.2°F-1.0°C 61% 3.2 mph WSW5.1 kmh WSW 5.8 mph9.3 kmh 30.30 in1026.1 mb 0.00 in0.0 mm 0.00 in0.0 mm 0.00 in0.0 mm
03:10 PM 42.6°F5.9°C 30.2°F-1.0°C 61% 3.8 mph WSW6.1 kmh WSW 6.0 mph9.7 kmh 30.30 in1026.1 mb 0.00 in0.0 mm 0.00 in0.0 mm 0.00 in0.0 mm
03:05 PM 42.8°F6.0°C 30.2°F-1.0°C 61% 4.1 mph WSW6.6 kmh WSW 6.0 mph9.7 kmh 30.30 in1026.1 mb 0.00 in0.0 mm 0.00 in0.0 mm 0.00 in0.0 mm
03:00 PM 42.6°F5.9°C 32.0°F0.0°C 63% 4.3 mph WSW6.9 kmh WSW 8.1 mph13.0 kmh 30.30 in1026.1 mb 0.00 in0.0 mm 0.00 in0.0 mm 0.00 in0.0 mm
02:55 PM 42.6°F5.9°C 32.0°F0.0°C 63% 4.0 mph WSW6.4 kmh WSW 8.1 mph13.0 kmh 30.30 in1026.1 mb 0.00 in0.0 mm 0.00 in0.0 mm 0.00 in0.0 mm
02:50 PM 42.4°F5.8°C 32.0°F0.0°C 64% 3.0 mph SW4.8 kmh SW 5.8 mph9.3 kmh 30.30 in1026.1 mb 0.00 in0.0 mm 0.00 in0.0 mm 0.00 in0.0 mm
02:45 PM 42.3°F5.7°C 32.0°F0.0°C 65% 2.5 mph SW4.0 kmh SW 3.8 mph6.1 kmh 30.30 in1026.1 mb 0.00 in0.0 mm 0.00 in0.0 mm 0.00 in0.0 mm
02:40 PM 42.1°F5.6°C 32.0°F0.0°C 65% 1.8 mph SW2.9 kmh SW 3.8 mph6.1 kmh 30.30 in1026.1 mb 0.00 in0.0 mm 0.00 in0.0 mm 0.00 in0.0 mm
02:35 PM 41.9°F5.5°C 32.0°F0.0°C 65% 1.7 mph SSW2.7 kmh SSW 3.8 mph6.1 kmh 30.27 in1025.1 mb 0.00 in0.0 mm 0.00 in0.0 mm 0.00 in0.0 mm
02:30 PM 41.9°F5.5°C 32.0°F0.0°C 65% 1.7 mph SW2.7 kmh SW 3.8 mph6.1 kmh 30.27 in1025.1 mb 0.00 in0.0 mm 0.00 in0.0 mm 0.00 in0.0 mm
02:25 PM 41.9°F5.5°C 32.0°F0.0°C 65% 1.2 mph SW1.9 kmh SW 3.6 mph5.8 kmh 30.27 in1025.1 mb 0.00 in0.0 mm 0.00 in0.0 mm 0.00 in0.0 mm
02:20 PM 41.7°F5.4°C 32.0°F0.0°C 65% 1.1 mph SW1.8 kmh SW 2.0 mph3.2 kmh 30.30 in1026.1 mb 0.00 in0.0 mm 0.00 in0.0 mm 0.00 in0.0 mm
02:15 PM 41.7°F5.4°C 32.0°F0.0°C 65% 1.2 mph SW1.9 kmh SW 2.9 mph4.7 kmh 30.30 in1026.1 mb 0.00 in0.0 mm 0.00 in0.0 mm 0.00 in0.0 mm
02:10 PM 41.7°F5.4°C 32.0°F0.0°C 65% 1.7 mph SW2.7 kmh SW 3.6 mph5.8 kmh 30.30 in1026.1 mb 0.00 in0.0 mm 0.00 in0.0 mm 0.00 in0.0 mm
02:05 PM 41.9°F5.5°C 32.0°F0.0°C 65% 1.3 mph SW2.1 kmh SW 3.6 mph5.8 kmh 30.30 in1026.1 mb 0.00 in0.0 mm 0.00 in0.0 mm 0.00 in0.0 mm
02:00 PM 41.7°F5.4°C 32.0°F0.0°C 65% 1.6 mph SSW2.6 kmh SSW 5.4 mph8.7 kmh 30.30 in1026.1 mb 0.00 in0.0 mm 0.00 in0.0 mm 0.00 in0.0 mm
01:55 PM 41.9°F5.5°C 32.0°F0.0°C 64% 2.5 mph SSW4.0 kmh SSW 5.4 mph8.7 kmh 30.30 in1026.1 mb 0.00 in0.0 mm 0.00 in0.0 mm 0.00 in0.0 mm
01:50 PM 41.9°F5.5°C 32.0°F0.0°C 64% 2.5 mph SSW4.0 kmh SSW 4.3 mph6.9 kmh 30.30 in1026.1 mb 0.00 in0.0 mm 0.00 in0.0 mm 0.00 in0.0 mm
01:45 PM 41.9°F5.5°C 32.0°F0.0°C 64% 2.4 mph SSW3.9 kmh SSW 4.3 mph6.9 kmh 30.30 in1026.1 mb 0.00 in0.0 mm 0.00 in0.0 mm 0.00 in0.0 mm
01:40 PM 41.9°F5.5°C 32.0°F0.0°C 64% 2.2 mph SW3.5 kmh SW 2.9 mph4.7 kmh 30.30 in1026.1 mb 0.00 in0.0 mm 0.00 in0.0 mm 0.00 in0.0 mm
01:35 PM 41.9°F5.5°C 32.0°F0.0°C 64% 2.2 mph SW3.5 kmh SW 3.6 mph5.8 kmh 30.30 in1026.1 mb 0.00 in0.0 mm 0.00 in0.0 mm 0.00 in0.0 mm
01:30 PM 41.9°F5.5°C 32.0°F0.0°C 64% 2.1 mph WSW3.4 kmh WSW 5.6 mph9.0 kmh 30.30 in1026.1 mb 0.00 in0.0 mm 0.00 in0.0 mm 0.00 in0.0 mm
01:25 PM 41.9°F5.5°C 32.0°F0.0°C 64% 2.5 mph SW4.0 kmh SW 5.6 mph9.0 kmh 30.30 in1026.1 mb 0.00 in0.0 mm 0.00 in0.0 mm 0.00 in0.0 mm
01:20 PM 41.9°F5.5°C 32.0°F0.0°C 64% 2.3 mph SW3.7 kmh SW 4.3 mph6.9 kmh 30.30 in1026.1 mb 0.00 in0.0 mm 0.00 in0.0 mm 0.00 in0.0 mm
01:15 PM 41.9°F5.5°C 32.0°F0.0°C 64% 1.9 mph SSW3.1 kmh SSW 3.8 mph6.1 kmh 30.30 in1026.1 mb 0.00 in0.0 mm 0.00 in0.0 mm 0.00 in0.0 mm
01:10 PM 42.1°F5.6°C 32.0°F0.0°C 64% 2.2 mph SW3.5 kmh SW 3.8 mph6.1 kmh 30.30 in1026.1 mb 0.00 in0.0 mm 0.00 in0.0 mm 0.00 in0.0 mm
01:05 PM 42.1°F5.6°C 32.0°F0.0°C 64% 2.5 mph WSW4.0 kmh WSW 4.7 mph7.6 kmh 30.33 in1027.1 mb 0.00 in0.0 mm 0.00 in0.0 mm 0.00 in0.0 mm
01:00 PM 42.3°F5.7°C 32.0°F0.0°C 65% 2.5 mph WSW4.0 kmh WSW 4.7 mph7.6 kmh 30.33 in1027.1 mb 0.00 in0.0 mm 0.00 in0.0 mm 0.00 in0.0 mm
12:55 PM 42.3°F5.7°C 32.0°F0.0°C 65% 2.9 mph WSW4.7 kmh WSW 4.7 mph7.6 kmh 30.33 in1027.1 mb 0.00 in0.0 mm 0.00 in0.0 mm 0.00 in0.0 mm
12:50 PM 42.3°F5.7°C 32.0°F0.0°C 65% 2.8 mph WSW4.5 kmh WSW 4.7 mph7.6 kmh 30.33 in1027.1 mb 0.00 in0.0 mm 0.00 in0.0 mm 0.00 in0.0 mm
12:45 PM 42.1°F5.6°C 32.0°F0.0°C 64% 2.0 mph WSW3.2 kmh WSW 3.8 mph6.1 kmh 30.33 in1027.1 mb 0.00 in0.0 mm 0.00 in0.0 mm 0.00 in0.0 mm
12:40 PM 41.7°F5.4°C 30.2°F-1.0°C 64% 1.9 mph SW3.1 kmh SW 3.4 mph5.5 kmh 30.33 in1027.1 mb 0.00 in0.0 mm 0.00 in0.0 mm 0.00 in0.0 mm
12:35 PM 41.7°F5.4°C 30.2°F-1.0°C 64% 2.1 mph SW3.4 kmh SW 3.4 mph5.5 kmh 30.33 in1027.1 mb 0.00 in0.0 mm 0.00 in0.0 mm 0.00 in0.0 mm
12:30 PM 41.5°F5.3°C 30.2°F-1.0°C 64% 1.6 mph WSW2.6 kmh WSW 2.5 mph4.0 kmh 30.33 in1027.1 mb 0.00 in0.0 mm 0.00 in0.0 mm 0.00 in0.0 mm
12:25 PM 41.4°F5.2°C 30.2°F-1.0°C 63% 1.3 mph WSW2.1 kmh WSW 2.0 mph3.2 kmh 30.33 in1027.1 mb 0.00 in0.0 mm 0.00 in0.0 mm 0.00 in0.0 mm
12:20 PM 41.2°F5.1°C 30.2°F-1.0°C 63% 0.8 mph WSW1.3 kmh WSW 2.0 mph3.2 kmh 30.33 in1027.1 mb 0.00 in0.0 mm 0.00 in0.0 mm 0.00 in0.0 mm
12:15 PM 41.0°F5.0°C 30.2°F-1.0°C 62% 0.4 mph SW0.6 kmh SW 1.3 mph2.1 kmh 30.33 in1027.1 mb 0.00 in0.0 mm 0.00 in0.0 mm 0.00 in0.0 mm
12:10 PM 41.2°F5.1°C 30.2°F-1.0°C 62% 0.4 mph SW0.6 kmh SW 1.3 mph2.1 kmh 30.33 in1027.1 mb 0.00 in0.0 mm 0.00 in0.0 mm 0.00 in0.0 mm
12:05 PM 41.2°F5.1°C 30.2°F-1.0°C 62% 0.1 mph SW0.2 kmh SW 1.1 mph1.8 kmh 30.33 in1027.1 mb 0.00 in0.0 mm 0.00 in0.0 mm 0.00 in0.0 mm
12:00 PM 41.0°F5.0°C 30.2°F-1.0°C 62% 0.1 mph NNE0.2 kmh NNE 0.9 mph1.4 kmh 30.33 in1027.1 mb 0.00 in0.0 mm 0.00 in0.0 mm 0.00 in0.0 mm
11:55 AM 41.0°F5.0°C 30.2°F-1.0°C 62% 0.2 mph E0.3 kmh E 0.9 mph1.4 kmh 30.33 in1027.1 mb 0.00 in0.0 mm 0.00 in0.0 mm 0.00 in0.0 mm
11:50 AM 40.6°F4.8°C 28.4°F-2.0°C 63% 0.1 mph E0.2 kmh E 0.9 mph1.4 kmh 30.33 in1027.1 mb 0.00 in0.0 mm 0.00 in0.0 mm 0.00 in0.0 mm
11:45 AM 40.5°F4.7°C 28.4°F-2.0°C 63% 0.2 mph WSW0.3 kmh WSW 0.9 mph1.4 kmh 30.33 in1027.1 mb 0.00 in0.0 mm 0.00 in0.0 mm 0.00 in0.0 mm
11:40 AM 40.1°F4.5°C 28.4°F-2.0°C 63% 0.4 mph WSW0.6 kmh WSW 0.9 mph1.4 kmh 30.33 in1027.1 mb 0.00 in0.0 mm 0.00 in0.0 mm 0.00 in0.0 mm
11:35 AM 39.9°F4.4°C 28.4°F-2.0°C 63% 0.3 mph WSW0.5 kmh WSW 1.3 mph2.1 kmh 30.36 in1028.1 mb 0.00 in0.0 mm 0.00 in0.0 mm 0.00 in0.0 mm
11:30 AM 39.9°F4.4°C 28.4°F-2.0°C 63% 0.2 mph WSW0.3 kmh WSW 1.3 mph2.1 kmh 30.36 in1028.1 mb 0.00 in0.0 mm 0.00 in0.0 mm 0.00 in0.0 mm
11:25 AM 39.7°F4.3°C 28.4°F-2.0°C 63% 0.3 mph WSW0.5 kmh WSW 2.2 mph3.5 kmh 30.36 in1028.1 mb 0.00 in0.0 mm 0.00 in0.0 mm 0.00 in0.0 mm
11:20 AM 39.7°F4.3°C 28.4°F-2.0°C 63% 1.0 mph WSW1.6 kmh WSW 2.7 mph4.3 kmh 30.36 in1028.1 mb 0.00 in0.0 mm 0.00 in0.0 mm 0.00 in0.0 mm
11:15 AM 39.6°F4.2°C 28.4°F-2.0°C 63% 1.3 mph WSW2.1 kmh WSW 2.7 mph4.3 kmh 30.36 in1028.1 mb 0.00 in0.0 mm 0.00 in0.0 mm 0.00 in0.0 mm
11:10 AM 39.6°F4.2°C 28.4°F-2.0°C 63% 1.0 mph WSW1.6 kmh WSW 2.5 mph4.0 kmh 30.36 in1028.1 mb 0.00 in0.0 mm 0.00 in0.0 mm 0.00 in0.0 mm
11:05 AM 39.4°F4.1°C 28.4°F-2.0°C 63% 0.6 mph WSW1.0 kmh WSW 2.5 mph4.0 kmh 30.36 in1028.1 mb 0.00 in0.0 mm 0.00 in0.0 mm 0.00 in0.0 mm
11:00 AM 39.2°F4.0°C 28.4°F-2.0°C 64% 0.2 mph WSW0.3 kmh WSW 1.3 mph2.1 kmh 30.36 in1028.1 mb 0.00 in0.0 mm 0.00 in0.0 mm 0.00 in0.0 mm
10:55 AM 38.8°F3.8°C 28.4°F-2.0°C 64% 0.9 mph WSW1.4 kmh WSW 2.9 mph4.7 kmh 30.36 in1028.1 mb 0.00 in0.0 mm 0.00 in0.0 mm 0.00 in0.0 mm
10:50 AM 38.7°F3.7°C 28.4°F-2.0°C 65% 2.2 mph WSW3.5 kmh WSW 4.0 mph6.4 kmh 30.36 in1028.1 mb 0.00 in0.0 mm 0.00 in0.0 mm 0.00 in0.0 mm
10:45 AM 38.5°F3.6°C 28.4°F-2.0°C 65% 2.7 mph WSW4.3 kmh WSW 4.0 mph6.4 kmh 30.36 in1028.1 mb 0.00 in0.0 mm 0.00 in0.0 mm 0.00 in0.0 mm
10:40 AM 38.3°F3.5°C 28.4°F-2.0°C 65% 2.3 mph WSW3.7 kmh WSW 3.6 mph5.8 kmh 30.36 in1028.1 mb 0.00 in0.0 mm 0.00 in0.0 mm 0.00 in0.0 mm
10:35 AM 37.9°F3.3°C 28.4°F-2.0°C 65% 2.5 mph WSW4.0 kmh WSW 3.6 mph5.8 kmh 30.36 in1028.1 mb 0.00 in0.0 mm 0.00 in0.0 mm 0.00 in0.0 mm
10:30 AM 37.8°F3.2°C 26.6°F-3.0°C 64% 1.8 mph W2.9 kmh W 3.1 mph5.0 kmh 30.36 in1028.1 mb 0.00 in0.0 mm 0.00 in0.0 mm 0.00 in0.0 mm
10:25 AM 37.4°F3.0°C 26.6°F-3.0°C 64% 1.4 mph WSW2.3 kmh WSW 3.1 mph5.0 kmh 30.36 in1028.1 mb 0.00 in0.0 mm 0.00 in0.0 mm 0.00 in0.0 mm
10:20 AM 37.2°F2.9°C 26.6°F-3.0°C 64% 1.8 mph SW2.9 kmh SW 3.1 mph5.0 kmh 30.36 in1028.1 mb 0.00 in0.0 mm 0.00 in0.0 mm 0.00 in0.0 mm
10:15 AM 37.0°F2.8°C 26.6°F-3.0°C 64% 1.8 mph SW2.9 kmh SW 2.9 mph4.7 kmh 30.36 in1028.1 mb 0.00 in0.0 mm 0.00 in0.0 mm 0.00 in0.0 mm
10:10 AM 36.9°F2.7°C 26.6°F-3.0°C 64% 1.3 mph WSW2.1 kmh WSW 2.2 mph3.5 kmh 30.36 in1028.1 mb 0.00 in0.0 mm 0.00 in0.0 mm 0.00 in0.0 mm
10:05 AM 36.9°F2.7°C 26.6°F-3.0°C 64% 0.8 mph WSW1.3 kmh WSW 2.2 mph3.5 kmh 30.36 in1028.1 mb 0.00 in0.0 mm 0.00 in0.0 mm 0.00 in0.0 mm
10:00 AM 36.5°F2.5°C 26.6°F-3.0°C 64% 0.6 mph W1.0 kmh W 1.3 mph2.1 kmh 30.36 in1028.1 mb 0.00 in0.0 mm 0.00 in0.0 mm 0.00 in0.0 mm
09:55 AM 36.3°F2.4°C 26.6°F-3.0°C 64% 0.7 mph WNW1.1 kmh WNW 2.0 mph3.2 kmh 30.36 in1028.1 mb 0.00 in0.0 mm 0.00 in0.0 mm 0.00 in0.0 mm
09:50 AM 36.1°F2.3°C 26.6°F-3.0°C 64% 0.6 mph WNW1.0 kmh WNW 2.0 mph3.2 kmh 30.36 in1028.1 mb 0.00 in0.0 mm 0.00 in0.0 mm 0.00 in0.0 mm
09:45 AM 36.0°F2.2°C 24.8°F-4.0°C 64% 0.3 mph WSW0.5 kmh WSW 1.1 mph1.8 kmh 30.36 in1028.1 mb 0.00 in0.0 mm 0.00 in0.0 mm 0.00 in0.0 mm
09:40 AM 35.8°F2.1°C 24.8°F-4.0°C 63% 0.2 mph W0.3 kmh W 0.9 mph1.4 kmh 30.36 in1028.1 mb 0.00 in0.0 mm 0.00 in0.0 mm 0.00 in0.0 mm
09:35 AM 35.6°F2.0°C 24.8°F-4.0°C 63% 0.2 mph W0.3 kmh W 0.9 mph1.4 kmh 30.36 in1028.1 mb 0.00 in0.0 mm 0.00 in0.0 mm 0.00 in0.0 mm
09:30 AM 35.4°F1.9°C 24.8°F-4.0°C 63% Calm Calm -- 30.36 in1028.1 mb 0.00 in0.0 mm 0.00 in0.0 mm 0.00 in0.0 mm
09:25 AM 35.4°F1.9°C 24.8°F-4.0°C 63% Calm Calm -- 30.36 in1028.1 mb 0.00 in0.0 mm 0.00 in0.0 mm 0.00 in0.0 mm
09:20 AM 35.1°F1.7°C 23.0°F-5.0°C 63% Calm Calm -- 30.36 in1028.1 mb 0.00 in0.0 mm 0.00 in0.0 mm 0.00 in0.0 mm
09:15 AM 35.1°F1.7°C 23.0°F-5.0°C 62% 0.1 mph NE0.2 kmh NE 1.1 mph1.8 kmh 30.36 in1028.1 mb 0.00 in0.0 mm 0.00 in0.0 mm 0.00 in0.0 mm
09:10 AM 34.9°F1.6°C 23.0°F-5.0°C 62% 0.4 mph NE0.6 kmh NE 1.1 mph1.8 kmh 30.36 in1028.1 mb 0.00 in0.0 mm 0.00 in0.0 mm 0.00 in0.0 mm
09:05 AM 34.9°F1.6°C 23.0°F-5.0°C 62% 0.8 mph NE1.3 kmh NE 1.1 mph1.8 kmh 30.36 in1028.1 mb 0.00 in0.0 mm 0.00 in0.0 mm 0.00 in0.0 mm
09:00 AM 34.5°F1.4°C 23.0°F-5.0°C 61% 0.9 mph NE1.4 kmh NE 2.0 mph3.2 kmh 30.36 in1028.1 mb 0.00 in0.0 mm 0.00 in0.0 mm 0.00 in0.0 mm
08:55 AM 34.5°F1.4°C 23.0°F-5.0°C 61% 0.9 mph NE1.4 kmh NE 2.0 mph3.2 kmh 30.36 in1028.1 mb 0.00 in0.0 mm 0.00 in0.0 mm 0.00 in0.0 mm
08:50 AM 34.3°F1.3°C 23.0°F-5.0°C 61% 0.8 mph NE1.3 kmh NE 1.6 mph2.6 kmh 30.36 in1028.1 mb 0.00 in0.0 mm 0.00 in0.0 mm 0.00 in0.0 mm
08:45 AM 34.2°F1.2°C 23.0°F-5.0°C 60% 0.5 mph NNE0.8 kmh NNE 1.3 mph2.1 kmh 30.36 in1028.1 mb 0.00 in0.0 mm 0.00 in0.0 mm 0.00 in0.0 mm
08:40 AM 34.2°F1.2°C 23.0°F-5.0°C 60% 0.4 mph NNE0.6 kmh NNE 1.1 mph1.8 kmh 30.36 in1028.1 mb 0.00 in0.0 mm 0.00 in0.0 mm 0.00 in0.0 mm
08:35 AM 34.0°F1.1°C 21.2°F-6.0°C 60% 0.5 mph NNE0.8 kmh NNE 1.6 mph2.6 kmh 30.36 in1028.1 mb 0.00 in0.0 mm 0.00 in0.0 mm 0.00 in0.0 mm
08:30 AM 34.0°F1.1°C 21.2°F-6.0°C 60% 0.6 mph NE1.0 kmh NE 2.0 mph3.2 kmh 30.36 in1028.1 mb 0.00 in0.0 mm 0.00 in0.0 mm 0.00 in0.0 mm
08:25 AM 34.0°F1.1°C 21.2°F-6.0°C 60% 1.0 mph NE1.6 kmh NE 3.4 mph5.5 kmh 30.36 in1028.1 mb 0.00 in0.0 mm 0.00 in0.0 mm 0.00 in0.0 mm
08:20 AM 33.8°F1.0°C 21.2°F-6.0°C 59% 1.0 mph ENE1.6 kmh ENE 3.4 mph5.5 kmh 30.36 in1028.1 mb 0.00 in0.0 mm 0.00 in0.0 mm 0.00 in0.0 mm
08:15 AM 34.3°F1.3°C 21.2°F-6.0°C 59% 0.8 mph NE1.3 kmh NE 3.4 mph5.5 kmh 30.36 in1028.1 mb 0.00 in0.0 mm 0.00 in0.0 mm 0.00 in0.0 mm
08:10 AM 34.0°F1.1°C 21.2°F-6.0°C 59% 0.7 mph NE1.1 kmh NE 2.0 mph3.2 kmh 30.36 in1028.1 mb 0.00 in0.0 mm 0.00 in0.0 mm 0.00 in0.0 mm
08:05 AM 33.8°F1.0°C 21.2°F-6.0°C 59% 0.5 mph NE0.8 kmh NE 1.1 mph1.8 kmh 30.36 in1028.1 mb 0.00 in0.0 mm 0.00 in0.0 mm 0.00 in0.0 mm
08:00 AM 33.8°F1.0°C 21.2°F-6.0°C 60% 0.7 mph NE1.1 kmh NE 1.3 mph2.1 kmh 30.36 in1028.1 mb 0.00 in0.0 mm 0.00 in0.0 mm 0.00 in0.0 mm
07:55 AM 33.6°F0.9°C 21.2°F-6.0°C 60% 0.8 mph NE1.3 kmh NE 1.3 mph2.1 kmh 30.36 in1028.1 mb 0.00 in0.0 mm 0.00 in0.0 mm 0.00 in0.0 mm
07:50 AM 33.3°F0.7°C 21.2°F-6.0°C 60% 0.8 mph NE1.3 kmh NE 1.6 mph2.6 kmh 30.36 in1028.1 mb 0.00 in0.0 mm 0.00 in0.0 mm 0.00 in0.0 mm
07:45 AM 33.1°F0.6°C 21.2°F-6.0°C 60% 0.9 mph NE1.4 kmh NE 1.6 mph2.6 kmh 30.36 in1028.1 mb 0.00 in0.0 mm 0.00 in0.0 mm 0.00 in0.0 mm
07:40 AM 32.9°F0.5°C 21.2°F-6.0°C 60% 1.0 mph ENE1.6 kmh ENE 2.0 mph3.2 kmh 30.36 in1028.1 mb 0.00 in0.0 mm 0.00 in0.0 mm 0.00 in0.0 mm
07:35 AM 32.9°F0.5°C 21.2°F-6.0°C 59% 0.9 mph ENE1.4 kmh ENE 2.0 mph3.2 kmh 30.36 in1028.1 mb 0.00 in0.0 mm 0.00 in0.0 mm 0.00 in0.0 mm
07:30 AM 32.9°F0.5°C 21.2°F-6.0°C 59% 0.4 mph NE0.6 kmh NE 1.6 mph2.6 kmh 30.36 in1028.1 mb 0.00 in0.0 mm 0.00 in0.0 mm 0.00 in0.0 mm
07:25 AM 32.9°F0.5°C 21.2°F-6.0°C 60% Calm Calm -- 30.36 in1028.1 mb 0.00 in0.0 mm 0.00 in0.0 mm 0.00 in0.0 mm
07:20 AM 33.3°F0.7°C 21.2°F-6.0°C 60% Calm Calm -- 30.36 in1028.1 mb 0.00 in0.0 mm 0.00 in0.0 mm 0.00 in0.0 mm
07:15 AM 33.3°F0.7°C 21.2°F-6.0°C 60% Calm Calm -- 30.36 in1028.1 mb 0.00 in0.0 mm 0.00 in0.0 mm 0.00 in0.0 mm
07:10 AM 33.3°F0.7°C 21.2°F-6.0°C 60% 0.1 mph NE0.2 kmh NE 1.1 mph1.8 kmh 30.36 in1028.1 mb 0.00 in0.0 mm 0.00 in0.0 mm 0.00 in0.0 mm
07:05 AM 33.3°F0.7°C 21.2°F-6.0°C 60% 0.4 mph NE0.6 kmh NE 1.1 mph1.8 kmh 30.33 in1027.1 mb 0.00 in0.0 mm 0.00 in0.0 mm 0.00 in0.0 mm
07:00 AM 33.4°F0.8°C 21.2°F-6.0°C 60% 0.3 mph NE0.5 kmh NE 1.1 mph1.8 kmh 30.33 in1027.1 mb 0.00 in0.0 mm 0.00 in0.0 mm 0.00 in0.0 mm
06:55 AM 33.4°F0.8°C 21.2°F-6.0°C 60% Calm Calm -- 30.33 in1027.1 mb 0.00 in0.0 mm 0.00 in0.0 mm 0.00 in0.0 mm
06:50 AM 33.6°F0.9°C 21.2°F-6.0°C 60% Calm Calm -- 30.36 in1028.1 mb 0.00 in0.0 mm 0.00 in0.0 mm 0.00 in0.0 mm
06:45 AM 33.6°F0.9°C 21.2°F-6.0°C 60% Calm Calm -- 30.36 in1028.1 mb 0.00 in0.0 mm 0.00 in0.0 mm 0.00 in0.0 mm
06:40 AM 33.8°F1.0°C 21.2°F-6.0°C 60% 0.1 mph NE0.2 kmh NE 0.9 mph1.4 kmh 30.36 in1028.1 mb 0.00 in0.0 mm 0.00 in0.0 mm 0.00 in0.0 mm
06:35 AM 33.6°F0.9°C 21.2°F-6.0°C 60% 0.5 mph NE0.8 kmh NE 1.6 mph2.6 kmh 30.36 in1028.1 mb 0.00 in0.0 mm 0.00 in0.0 mm 0.00 in0.0 mm
06:30 AM 33.4°F0.8°C 21.2°F-6.0°C 59% 1.0 mph NE1.6 kmh NE 1.6 mph2.6 kmh 30.36 in1028.1 mb 0.00 in0.0 mm 0.00 in0.0 mm 0.00 in0.0 mm
06:25 AM 33.6°F0.9°C 21.2°F-6.0°C 59% 0.5 mph NE0.8 kmh NE 1.6 mph2.6 kmh 30.36 in1028.1 mb 0.00 in0.0 mm 0.00 in0.0 mm 0.00 in0.0 mm
06:20 AM 33.6°F0.9°C 21.2°F-6.0°C 59% 0.5 mph NE0.8 kmh NE 1.6 mph2.6 kmh 30.36 in1028.1 mb 0.00 in0.0 mm 0.00 in0.0 mm 0.00 in0.0 mm
06:15 AM 33.6°F0.9°C 21.2°F-6.0°C 59% 1.3 mph NE2.1 kmh NE 2.5 mph4.0 kmh 30.36 in1028.1 mb 0.00 in0.0 mm 0.00 in0.0 mm 0.00 in0.0 mm
06:10 AM 33.6°F0.9°C 21.2°F-6.0°C 60% 1.5 mph NE2.4 kmh NE 2.5 mph4.0 kmh 30.36 in1028.1 mb 0.00 in0.0 mm 0.00 in0.0 mm 0.00 in0.0 mm
06:05 AM 33.8°F1.0°C 21.2°F-6.0°C 59% 1.2 mph NE1.9 kmh NE 2.0 mph3.2 kmh 30.36 in1028.1 mb 0.00 in0.0 mm 0.00 in0.0 mm 0.00 in0.0 mm
06:00 AM 33.8°F1.0°C 21.2°F-6.0°C 59% 0.5 mph ENE0.8 kmh ENE 1.3 mph2.1 kmh 30.36 in1028.1 mb 0.00 in0.0 mm 0.00 in0.0 mm 0.00 in0.0 mm
05:55 AM 33.8°F1.0°C 21.2°F-6.0°C 59% 0.4 mph NE0.6 kmh NE 1.1 mph1.8 kmh 30.36 in1028.1 mb 0.00 in0.0 mm 0.00 in0.0 mm 0.00 in0.0 mm
05:50 AM 33.8°F1.0°C 21.2°F-6.0°C 59% 0.3 mph NE0.5 kmh NE 1.1 mph1.8 kmh 30.33 in1027.1 mb 0.00 in0.0 mm 0.00 in0.0 mm 0.00 in0.0 mm
05:45 AM 33.8°F1.0°C 21.2°F-6.0°C 59% Calm Calm -- 30.33 in1027.1 mb 0.00 in0.0 mm 0.00 in0.0 mm 0.00 in0.0 mm
05:40 AM 33.8°F1.0°C 21.2°F-6.0°C 59% Calm Calm -- 30.33 in1027.1 mb 0.00 in0.0 mm 0.00 in0.0 mm 0.00 in0.0 mm
05:35 AM 34.0°F1.1°C 21.2°F-6.0°C 59% Calm Calm -- 30.36 in1028.1 mb 0.00 in0.0 mm 0.00 in0.0 mm 0.00 in0.0 mm
05:30 AM 34.0°F1.1°C 21.2°F-6.0°C 59% Calm Calm -- 30.36 in1028.1 mb 0.00 in0.0 mm 0.00 in0.0 mm 0.00 in0.0 mm
05:25 AM 34.0°F1.1°C 21.2°F-6.0°C 58% Calm Calm -- 30.36 in1028.1 mb 0.00 in0.0 mm 0.00 in0.0 mm 0.00 in0.0 mm
05:20 AM 34.0°F1.1°C 21.2°F-6.0°C 58% Calm Calm -- 30.36 in1028.1 mb 0.00 in0.0 mm 0.00 in0.0 mm 0.00 in0.0 mm
05:15 AM 34.2°F1.2°C 21.2°F-6.0°C 59% Calm Calm -- 30.36 in1028.1 mb 0.00 in0.0 mm 0.00 in0.0 mm 0.00 in0.0 mm
05:10 AM 34.0°F1.1°C 21.2°F-6.0°C 59% Calm Calm -- 30.36 in1028.1 mb 0.00 in0.0 mm 0.00 in0.0 mm 0.00 in0.0 mm
05:05 AM 34.3°F1.3°C 21.2°F-6.0°C 59% 0.1 mph E0.2 kmh E 0.9 mph1.4 kmh 30.36 in1028.1 mb 0.00 in0.0 mm 0.00 in0.0 mm 0.00 in0.0 mm
05:00 AM 34.5°F1.4°C 21.2°F-6.0°C 59% 0.3 mph E0.5 kmh E 0.9 mph1.4 kmh 30.36 in1028.1 mb 0.00 in0.0 mm 0.00 in0.0 mm 0.00 in0.0 mm
04:55 AM 34.3°F1.3°C 21.2°F-6.0°C 59% 0.5 mph ENE0.8 kmh ENE 1.3 mph2.1 kmh 30.36 in1028.1 mb 0.00 in0.0 mm 0.00 in0.0 mm 0.00 in0.0 mm
04:50 AM 34.3°F1.3°C 21.2°F-6.0°C 59% 0.7 mph NE1.1 kmh NE 1.3 mph2.1 kmh 30.36 in1028.1 mb 0.00 in0.0 mm 0.00 in0.0 mm 0.00 in0.0 mm
04:45 AM 34.3°F1.3°C 21.2°F-6.0°C 59% 0.5 mph NE0.8 kmh NE 1.3 mph2.1 kmh 30.36 in1028.1 mb 0.00 in0.0 mm 0.00 in0.0 mm 0.00 in0.0 mm
04:40 AM 34.2°F1.2°C 21.2°F-6.0°C 58% 0.4 mph NE0.6 kmh NE 1.3 mph2.1 kmh 30.36 in1028.1 mb 0.00 in0.0 mm 0.00 in0.0 mm 0.00 in0.0 mm
04:35 AM 34.3°F1.3°C 21.2°F-6.0°C 58% 0.5 mph NE0.8 kmh NE 1.1 mph1.8 kmh 30.36 in1028.1 mb 0.00 in0.0 mm 0.00 in0.0 mm 0.00 in0.0 mm
04:30 AM 34.3°F1.3°C 21.2°F-6.0°C 58% 0.7 mph NE1.1 kmh NE 1.1 mph1.8 kmh 30.36 in1028.1 mb 0.00 in0.0 mm 0.00 in0.0 mm 0.00 in0.0 mm
04:25 AM 34.3°F1.3°C 21.2°F-6.0°C 58% 0.4 mph NE0.6 kmh NE 1.1 mph1.8 kmh 30.36 in1028.1 mb 0.00 in0.0 mm 0.00 in0.0 mm 0.00 in0.0 mm
04:20 AM 34.3°F1.3°C 21.2°F-6.0°C 58% 0.2 mph NE0.3 kmh NE 1.6 mph2.6 kmh 30.36 in1028.1 mb 0.00 in0.0 mm 0.00 in0.0 mm 0.00 in0.0 mm
04:15 AM 34.2°F1.2°C 21.2°F-6.0°C 58% 0.4 mph NE0.6 kmh NE 1.6 mph2.6 kmh 30.36 in1028.1 mb 0.00 in0.0 mm 0.00 in0.0 mm 0.00 in0.0 mm
04:10 AM 34.3°F1.3°C 21.2°F-6.0°C 58% 0.9 mph NE1.4 kmh NE 1.6 mph2.6 kmh 30.36 in1028.1 mb 0.00 in0.0 mm 0.00 in0.0 mm 0.00 in0.0 mm
04:05 AM 34.3°F1.3°C 21.2°F-6.0°C 58% 0.7 mph NE1.1 kmh NE 1.3 mph2.1 kmh 30.36 in1028.1 mb 0.00 in0.0 mm 0.00 in0.0 mm 0.00 in0.0 mm
04:00 AM 34.5°F1.4°C 21.2°F-6.0°C 58% 0.4 mph N0.6 kmh N 1.3 mph2.1 kmh 30.36 in1028.1 mb 0.00 in0.0 mm 0.00 in0.0 mm 0.00 in0.0 mm
03:55 AM 34.7°F1.5°C 21.2°F-6.0°C 58% 0.2 mph N0.3 kmh N 0.9 mph1.4 kmh 30.36 in1028.1 mb 0.00 in0.0 mm 0.00 in0.0 mm 0.00 in0.0 mm
03:50 AM 34.7°F1.5°C 21.2°F-6.0°C 58% Calm Calm -- 30.36 in1028.1 mb 0.00 in0.0 mm 0.00 in0.0 mm 0.00 in0.0 mm
03:45 AM 34.7°F1.5°C 21.2°F-6.0°C 58% Calm Calm -- 30.36 in1028.1 mb 0.00 in0.0 mm 0.00 in0.0 mm 0.00 in0.0 mm
03:40 AM 34.9°F1.6°C 21.2°F-6.0°C 58% Calm Calm -- 30.36 in1028.1 mb 0.00 in0.0 mm 0.00 in0.0 mm 0.00 in0.0 mm
03:35 AM 34.9°F1.6°C 21.2°F-6.0°C 58% Calm Calm -- 30.36 in1028.1 mb 0.00 in0.0 mm 0.00 in0.0 mm 0.00 in0.0 mm
03:30 AM 35.1°F1.7°C 23.0°F-5.0°C 59% 0.1 mph S0.2 kmh S 0.9 mph1.4 kmh 30.36 in1028.1 mb 0.00 in0.0 mm 0.00 in0.0 mm 0.00 in0.0 mm
03:25 AM 35.2°F1.8°C 23.0°F-5.0°C 59% 0.1 mph SE0.2 kmh SE 0.9 mph1.4 kmh 30.36 in1028.1 mb 0.00 in0.0 mm 0.00 in0.0 mm 0.00 in0.0 mm
03:20 AM 35.2°F1.8°C 21.2°F-6.0°C 58% 0.1 mph ENE0.2 kmh ENE 0.9 mph1.4 kmh 30.36 in1028.1 mb 0.00 in0.0 mm 0.00 in0.0 mm 0.00 in0.0 mm
03:15 AM 35.1°F1.7°C 21.2°F-6.0°C 58% Calm Calm -- 30.36 in1028.1 mb 0.00 in0.0 mm 0.00 in0.0 mm 0.00 in0.0 mm
03:10 AM 35.1°F1.7°C 21.2°F-6.0°C 58% 0.7 mph NE1.1 kmh NE 3.1 mph5.0 kmh 30.36 in1028.1 mb 0.00 in0.0 mm 0.00 in0.0 mm 0.00 in0.0 mm
03:05 AM 35.1°F1.7°C 21.2°F-6.0°C 58% 1.0 mph NE1.6 kmh NE 3.1 mph5.0 kmh 30.36 in1028.1 mb 0.00 in0.0 mm 0.00 in0.0 mm 0.00 in0.0 mm
03:00 AM 35.4°F1.9°C 23.0°F-5.0°C 58% 0.7 mph SW1.1 kmh SW 2.0 mph3.2 kmh 30.36 in1028.1 mb 0.00 in0.0 mm 0.00 in0.0 mm 0.00 in0.0 mm
02:55 AM 35.2°F1.8°C 21.2°F-6.0°C 58% 0.5 mph SW0.8 kmh SW 1.6 mph2.6 kmh 30.36 in1028.1 mb 0.00 in0.0 mm 0.00 in0.0 mm 0.00 in0.0 mm
02:50 AM 35.2°F1.8°C 21.2°F-6.0°C 57% 0.1 mph WSW0.2 kmh WSW 1.1 mph1.8 kmh 30.36 in1028.1 mb 0.00 in0.0 mm 0.00 in0.0 mm 0.00 in0.0 mm
02:45 AM 35.6°F2.0°C 23.0°F-5.0°C 57% Calm Calm -- 30.36 in1028.1 mb 0.00 in0.0 mm 0.00 in0.0 mm 0.00 in0.0 mm
02:40 AM 35.4°F1.9°C 23.0°F-5.0°C 58% 0.3 mph S0.5 kmh S 2.2 mph3.5 kmh 30.36 in1028.1 mb 0.00 in0.0 mm 0.00 in0.0 mm 0.00 in0.0 mm
02:35 AM 35.6°F2.0°C 23.0°F-5.0°C 57% 0.3 mph SSE0.5 kmh SSE 2.2 mph3.5 kmh 30.36 in1028.1 mb 0.00 in0.0 mm 0.00 in0.0 mm 0.00 in0.0 mm
02:30 AM 35.6°F2.0°C 23.0°F-5.0°C 57% 0.4 mph E0.6 kmh E 0.9 mph1.4 kmh 30.36 in1028.1 mb 0.00 in0.0 mm 0.00 in0.0 mm 0.00 in0.0 mm
02:25 AM 35.6°F2.0°C 23.0°F-5.0°C 57% 0.8 mph NE1.3 kmh NE 1.6 mph2.6 kmh 30.36 in1028.1 mb 0.00 in0.0 mm 0.00 in0.0 mm 0.00 in0.0 mm
02:20 AM 35.4°F1.9°C 21.2°F-6.0°C 57% 0.8 mph NNE1.3 kmh NNE 2.0 mph3.2 kmh 30.36 in1028.1 mb 0.00 in0.0 mm 0.00 in0.0 mm 0.00 in0.0 mm
02:15 AM 35.8°F2.1°C 23.0°F-5.0°C 57% 0.3 mph N0.5 kmh N 2.0 mph3.2 kmh 30.36 in1028.1 mb 0.00 in0.0 mm 0.00 in0.0 mm 0.00 in0.0 mm
02:10 AM 36.0°F2.2°C 23.0°F-5.0°C 58% Calm Calm -- 30.36 in1028.1 mb 0.00 in0.0 mm 0.00 in0.0 mm 0.00 in0.0 mm
02:05 AM 36.1°F2.3°C 23.0°F-5.0°C 58% 0.3 mph E0.5 kmh E 1.3 mph2.1 kmh 30.36 in1028.1 mb 0.00 in0.0 mm 0.00 in0.0 mm 0.00 in0.0 mm
02:00 AM 36.1°F2.3°C 23.0°F-5.0°C 58% 0.6 mph E1.0 kmh E 1.3 mph2.1 kmh 30.36 in1028.1 mb 0.00 in0.0 mm 0.00 in0.0 mm 0.00 in0.0 mm
01:55 AM 36.3°F2.4°C 23.0°F-5.0°C 58% 0.6 mph NE1.0 kmh NE 1.3 mph2.1 kmh 30.36 in1028.1 mb 0.00 in0.0 mm 0.00 in0.0 mm 0.00 in0.0 mm
01:50 AM 36.1°F2.3°C 23.0°F-5.0°C 57% 0.4 mph N0.6 kmh N 0.9 mph1.4 kmh 30.36 in1028.1 mb 0.00 in0.0 mm 0.00 in0.0 mm 0.00 in0.0 mm
01:45 AM 36.1°F2.3°C 23.0°F-5.0°C 57% 0.1 mph NNW0.2 kmh NNW 0.9 mph1.4 kmh 30.36 in1028.1 mb 0.00 in0.0 mm 0.00 in0.0 mm 0.00 in0.0 mm
01:40 AM 36.3°F2.4°C 23.0°F-5.0°C 57% 0.2 mph WSW0.3 kmh WSW 1.3 mph2.1 kmh 30.36 in1028.1 mb 0.00 in0.0 mm 0.00 in0.0 mm 0.00 in0.0 mm
01:35 AM 36.5°F2.5°C 23.0°F-5.0°C 57% 0.7 mph WSW1.1 kmh WSW 2.5 mph4.0 kmh 30.36 in1028.1 mb 0.00 in0.0 mm 0.00 in0.0 mm 0.00 in0.0 mm
01:30 AM 36.7°F2.6°C 23.0°F-5.0°C 57% 0.7 mph W1.1 kmh W 2.5 mph4.0 kmh 30.36 in1028.1 mb 0.00 in0.0 mm 0.00 in0.0 mm 0.00 in0.0 mm
01:25 AM 36.7°F2.6°C 23.0°F-5.0°C 57% 0.4 mph WSW0.6 kmh WSW 1.3 mph2.1 kmh 30.36 in1028.1 mb 0.00 in0.0 mm 0.00 in0.0 mm 0.00 in0.0 mm
01:20 AM 36.3°F2.4°C 23.0°F-5.0°C 57% 0.1 mph WSW0.2 kmh WSW 0.9 mph1.4 kmh 30.36 in1028.1 mb 0.00 in0.0 mm 0.00 in0.0 mm 0.00 in0.0 mm
01:15 AM 36.1°F2.3°C 23.0°F-5.0°C 57% 0.1 mph NNW0.2 kmh NNW 0.9 mph1.4 kmh 30.36 in1028.1 mb 0.00 in0.0 mm 0.00 in0.0 mm 0.00 in0.0 mm
01:10 AM 36.3°F2.4°C 23.0°F-5.0°C 56% 0.4 mph N0.6 kmh N 1.1 mph1.8 kmh 30.36 in1028.1 mb 0.00 in0.0 mm 0.00 in0.0 mm 0.00 in0.0 mm
01:05 AM 36.1°F2.3°C 23.0°F-5.0°C 56% 0.6 mph N1.0 kmh N 1.3 mph2.1 kmh 30.36 in1028.1 mb 0.00 in0.0 mm 0.00 in0.0 mm 0.00 in0.0 mm
01:00 AM 36.3°F2.4°C 23.0°F-5.0°C 56% 0.5 mph N0.8 kmh N 1.3 mph2.1 kmh 30.36 in1028.1 mb 0.00 in0.0 mm 0.00 in0.0 mm 0.00 in0.0 mm
12:55 AM 36.5°F2.5°C 23.0°F-5.0°C 56% 0.4 mph NNW0.6 kmh NNW 0.9 mph1.4 kmh 30.36 in1028.1 mb 0.00 in0.0 mm 0.00 in0.0 mm 0.00 in0.0 mm
12:50 AM 36.7°F2.6°C 23.0°F-5.0°C 56% 0.3 mph NW0.5 kmh NW 0.9 mph1.4 kmh 30.36 in1028.1 mb 0.00 in0.0 mm 0.00 in0.0 mm 0.00 in0.0 mm
12:45 AM 36.7°F2.6°C 23.0°F-5.0°C 56% 0.4 mph WNW0.6 kmh WNW 1.3 mph2.1 kmh 30.36 in1028.1 mb 0.00 in0.0 mm 0.00 in0.0 mm 0.00 in0.0 mm
12:40 AM 36.7°F2.6°C 23.0°F-5.0°C 56% 0.8 mph NW1.3 kmh NW 2.0 mph3.2 kmh 30.36 in1028.1 mb 0.00 in0.0 mm 0.00 in0.0 mm 0.00 in0.0 mm
12:35 AM 36.7°F2.6°C 23.0°F-5.0°C 56% 0.9 mph NNW1.4 kmh NNW 2.0 mph3.2 kmh 30.36 in1028.1 mb 0.00 in0.0 mm 0.00 in0.0 mm 0.00 in0.0 mm
12:30 AM 36.9°F2.7°C 23.0°F-5.0°C 56% 1.3 mph N2.1 kmh N 2.7 mph4.3 kmh 30.36 in1028.1 mb 0.00 in0.0 mm 0.00 in0.0 mm 0.00 in0.0 mm
12:25 AM 37.0°F2.8°C 23.0°F-5.0°C 56% 0.9 mph N1.4 kmh N 2.7 mph4.3 kmh 30.36 in1028.1 mb 0.00 in0.0 mm 0.00 in0.0 mm 0.00 in0.0 mm
12:20 AM 36.9°F2.7°C 23.0°F-5.0°C 55% 0.2 mph N0.3 kmh N 1.6 mph2.6 kmh 30.36 in1028.1 mb 0.00 in0.0 mm 0.00 in0.0 mm 0.00 in0.0 mm
12:15 AM 36.9°F2.7°C 23.0°F-5.0°C 55% 0.1 mph N0.2 kmh N 0.9 mph1.4 kmh 30.36 in1028.1 mb 0.00 in0.0 mm 0.00 in0.0 mm 0.00 in0.0 mm
12:10 AM 37.0°F2.8°C 23.0°F-5.0°C 56% Calm Calm -- 30.36 in1028.1 mb 0.00 in0.0 mm 0.00 in0.0 mm 0.00 in0.0 mm
12:05 AM 37.2°F2.9°C 23.0°F-5.0°C 56% Calm Calm -- 30.36 in1028.1 mb 0.00 in0.0 mm 0.00 in0.0 mm 0.00 in0.0 mm
12:00 AM 37.2°F2.9°C 23.0°F-5.0°C 56% Calm Calm -- 30.36 in1028.1 mb 0.00 in0.0 mm 0.00 in0.0 mm 0.00 in0.0 mm